Snow/Ice From: 17-01-2019 16:00 Until: 18-01-2019 16:00 warning for: Snow/Ice Level: Yellow info button

Although rather usual in this region, locally or potentially dangerous phenomena are expected. (such as local winds, summer thunderstorms, rising streams or high waves) Be aware and pay attention to the latest weather updates, especially if you carry out activities exposed to weather or close to a stream or shoreline. 

Meteo18 Weather Cam more information Meteo18 Weather Cam


Thunder radar more information blitzortung!


warning for Snow/Ice more information rain snow radar



Nearby METAR Reports

   
EBAW - Antwerp
Updated: 17-01-2019 18:20
Showers, Rain, Snow, Mostly Cloudy  
Showers, Rain, Snow, Mostly Cloudy  
   Wind: WNW 18.5 km/h
Wind: WNW 18.5 km/h
Temperature: 3°C
Wind Chill: -1°C
Dew Point: 1°C
Humidity: 87%
Barometer: 1010 hPa
Clouds: Mostly Cloudy
Visibility: 6 km
Cloud details: Partly Cloudy 1200 ft,
Mostly Cloudy 2000 ft
EBAW 171720Z 29010KT 6000 SHRASN SCT012 BKN020 03/01 Q1010 TEMPO 30025G35KT 3000 SHRAGS SCT008 BKN014CB
EBLG - Li├Ęge
Updated: 17-01-2019 18:20
Mostly Cloudy  
Mostly Cloudy  
   Wind: West 25.9 km/h
Wind: West 25.9 km/h
Temperature: 2°C
Wind Chill: -3°C
Dew Point: -1°C
Humidity: 81%
Barometer: 1009 hPa
Clouds: Mostly Cloudy
Visibility: More than 10 km
Cloud details: Few Clouds 1400 ft,
Mostly Cloudy 3500 ft
EBLG 171720Z 26014KT 9999 FEW014 BKN035 02/M01 Q1009 TEMPO 30015G25KT 3500 SHRAGSSN BKN006
EBCV - Mons/Bergen
Updated: 17-01-2019 18:39
Light Rain, Mostly Cloudy  
Light Rain, Mostly Cloudy  
   Wind: West 29.6 km/h<br />Gust to 29.6 km/h
Wind: West 29.6 km/h
Gust to 29.6 km/h
Temperature: 3°C
Wind Chill: -3°C
Dew Point: -1°C
Humidity: 75%
Barometer: 1013 hPa
Clouds: Mostly Cloudy
Visibility: 6 km
Cloud details: Mostly Cloudy 4700 ft,
Mostly Cloudy 7900 ft
EBCV 171739Z AUTO 28016G27KT 6000 -RA BKN047/// BKN079/// 03/M01 Q1013 WHT
EHBK - Maastricht
Updated: 17-01-2019 18:25
Overcast  
Overcast  
   Wind: SW 18.5 km/h
Wind: SW 18.5 km/h
Temperature: 2°C
Wind Chill: -2°C
Dew Point: 0°C
Humidity: 87%
Barometer: 1008 hPa
Clouds: Overcast
Visibility: More than 10 km
Cloud details: Few Clouds 2700 ft,
Mostly Cloudy 3400 ft,
Overcast 3800 ft
EHBK 171725Z AUTO 22010KT 9999 FEW027 BKN034 OVC038 02/00 Q1008 TEMPO 4000 SHRASN BKN008 SCT020CB
ELLX - Luxemburg
Updated: 17-01-2019 18:20
Mostly Cloudy  
Mostly Cloudy  
   Wind: WNW 16.7 km/h
Wind: WNW 16.7 km/h
Temperature: 0°C
Wind Chill: -4°C
Dew Point: 0°C
Humidity: 100%
Barometer: 1009 hPa
Clouds: Mostly Cloudy
Visibility: More than 10 km
Cloud details: Few Clouds 500 ft,
Mostly Cloudy 4000 ft
ELLX 171720Z 30009KT 9999 FEW005 BKN040 00/M00 Q1009 TEMPO 25015G30KT 1500 SHSN
EBOS - Oostende
Updated: 17-01-2019 18:20
Mostly Cloudy  
Mostly Cloudy  
   Wind: NW 37 km/h
Wind: NW 37 km/h
Temperature: 4°C
Wind Chill: -2°C
Dew Point: 0°C
Humidity: 75%
Barometer: 1012 hPa
Clouds: Mostly Cloudy
Visibility: More than 10 km
Cloud details: Partly Cloudy 2200 ft,
Mostly Cloudy 3500 ft
EBOS 171720Z 31020KT 9999 SCT022TCU BKN035 04/00 Q1012 TEMPO 31022G32KT 3500 SHRAGS

Script developed by  Saratoga-weather.org Adapted for the template by  Weerstation Leuven

You find our weather info also at:

Weather Underground

Equipment we use:

Weather-station
Davis Vue

Weather-program
Meteobridge

Weather-server
Raspberry PI 2 B+

Provider
1 and 1

Davis Vue

Meteobridge

Raspberry PI 2 B+

1 and 1